Wetterdaten: Woche 21.04.14 - 27.04.14 (KW17)
Datum Zeit Temp. A. Feuchte A. Luftdruck Regen Wind Richtung Taupunkt Windchill Windben
21.04.2014 00:00 10,0 C 84 % 1008,8 hPa 0,0 l/m 0,0 km/h N 7,3 C 10,0 C 0,4 km/h
21.04.2014 01:00 9,0 C 84 % 1008,7 hPa 0,0 l/m 0,0 km/h N 6,4 C 9,0 C 0,0 km/h
21.04.2014 02:00 8,8 C 82 % 1008,2 hPa 0,0 l/m 0,0 km/h N 5,9 C 8,8 C 0,4 km/h
21.04.2014 03:00 9,1 C 81 % 1007,8 hPa 0,0 l/m 0,5 km/h N 6,0 C 9,1 C 4,8 km/h
21.04.2014 04:00 8,7 C 81 % 1007,6 hPa 0,0 l/m 0,4 km/h N 5,5 C 8,7 C 3,6 km/h
21.04.2014 05:00 8,8 C 80 % 1007,3 hPa 0,0 l/m 0,7 km/h N 5,5 C 8,8 C 5,2 km/h
21.04.2014 06:00 8,6 C 80 % 1007,5 hPa 0,0 l/m 0,3 km/h N 5,3 C 8,6 C 3,2 km/h
21.04.2014 07:00 9,9 C 78 % 1007,5 hPa 0,0 l/m 3,0 km/h N 6,3 C 9,9 C 8,8 km/h
21.04.2014 08:00 11,5 C 81 % 1007,4 hPa 0,0 l/m 5,8 km/h N 8,3 C 11,4 C 15,7 km/h
21.04.2014 09:00 12,9 C 83 % 1007,2 hPa 0,0 l/m 7,2 km/h N 10,1 C 12,4 C 21,3 km/h
21.04.2014 10:00 14,4 C 78 % 1007,1 hPa 0,0 l/m 10,5 km/h N 10,7 C 12,2 C 27,8 km/h
21.04.2014 11:00 15,5 C 75 % 1007,1 hPa 0,0 l/m 10,7 km/h N 11,1 C 13,4 C 26,9 km/h
21.04.2014 12:00 15,3 C 75 % 1007,2 hPa 0,0 l/m 12,1 km/h N 10,9 C 12,6 C 29,0 km/h
21.04.2014 13:00 16,5 C 71 % 1006,9 hPa 0,0 l/m 12,7 km/h N 11,3 C 13,8 C 29,0 km/h
21.04.2014 14:00 16,4 C 72 % 1006,7 hPa 0,0 l/m 10,0 km/h N 11,2 C 14,7 C 22,5 km/h
21.04.2014 15:00 16,5 C 72 % 1006,4 hPa 0,0 l/m 6,1 km/h N 11,4 C 16,3 C 17,3 km/h
21.04.2014 16:00 17,4 C 68 % 1006,0 hPa 0,0 l/m 6,6 km/h N 11,4 C 16,8 C 20,9 km/h
21.04.2014 17:00 17,6 C 64 % 1006,1 hPa 0,0 l/m 7,7 km/h N 10,7 C 16,9 C 20,5 km/h
21.04.2014 18:00 16,7 C 68 % 1006,1 hPa 0,0 l/m 6,9 km/h N 10,8 C 16,4 C 18,9 km/h
21.04.2014 19:00 16,1 C 70 % 1006,0 hPa 0,0 l/m 6,1 km/h N 10,5 C 15,9 C 17,3 km/h
21.04.2014 20:00 15,0 C 74 % 1006,2 hPa 0,0 l/m 3,8 km/h N 10,4 C 15,0 C 12,5 km/h
21.04.2014 21:00 13,7 C 77 % 1006,5 hPa 0,0 l/m 1,8 km/h N 9,7 C 13,7 C 6,4 km/h
21.04.2014 22:00 12,6 C 78 % 1006,5 hPa 0,0 l/m 1,8 km/h N 8,9 C 12,6 C 7,2 km/h
21.04.2014 23:00 12,0 C 80 % 1006,8 hPa 0,0 l/m 1,8 km/h N 8,6 C 12,0 C 7,2 km/h
22.04.2014 00:00 12,0 C 80 % 1007,0 hPa 0,0 l/m 2,9 km/h N 8,6 C 12,0 C 8,4 km/h
22.04.2014 01:00 11,6 C 81 % 1007,1 hPa 0,0 l/m 0,2 km/h N 8,4 C 11,6 C 3,2 km/h
22.04.2014 02:00 11,2 C 83 % 1007,3 hPa 0,5 l/m 0,1 km/h N 8,4 C 11,2 C 2,4 km/h
22.04.2014 03:00 11,1 C 83 % 1007,6 hPa 0,0 l/m 0,0 km/h N 8,4 C 11,1 C 0,0 km/h
22.04.2014 04:00 10,8 C 83 % 1007,8 hPa 0,0 l/m 0,0 km/h N 8,0 C 10,8 C 1,2 km/h
22.04.2014 05:00 10,2 C 82 % 1007,9 hPa 0,0 l/m 0,2 km/h N 7,2 C 10,2 C 1,6 km/h
22.04.2014 06:00 10,5 C 80 % 1008,3 hPa 0,0 l/m 0,3 km/h N 7,2 C 10,5 C 2,8 km/h
22.04.2014 07:00 11,1 C 79 % 1009,0 hPa 0,0 l/m 0,3 km/h N 7,5 C 11,1 C 1,2 km/h
22.04.2014 08:00 12,0 C 77 % 1009,8 hPa 0,0 l/m 0,2 km/h N 8,1 C 12,0 C 1,2 km/h
22.04.2014 09:00 12,9 C 79 % 1010,6 hPa 0,0 l/m 2,3 km/h N 9,4 C 12,9 C 7,6 km/h
22.04.2014 10:00 14,8 C 81 % 1011,2 hPa 0,3 l/m 2,4 km/h N 11,6 C 14,8 C 8,4 km/h
22.04.2014 11:00 15,2 C 78 % 1011,7 hPa 0,0 l/m 3,4 km/h N 11,4 C 15,2 C 8,9 km/h
22.04.2014 12:00 16,7 C 74 % 1011,6 hPa 0,0 l/m 3,7 km/h N 12,0 C 16,7 C 11,3 km/h
22.04.2014 13:00 17,0 C 72 % 1011,7 hPa 0,0 l/m 2,9 km/h N 11,9 C 17,0 C 9,3 km/h
22.04.2014 14:00 17,4 C 71 % 1011,7 hPa 0,0 l/m 1,9 km/h N 12,1 C 17,4 C 7,2 km/h
22.04.2014 15:00 18,5 C 69 % 1011,3 hPa 0,0 l/m 1,3 km/h N 12,6 C 18,5 C 6,8 km/h
22.04.2014 16:00 18,8 C 68 % 1011,4 hPa 0,0 l/m 0,6 km/h N 12,7 C 18,8 C 5,6 km/h
22.04.2014 17:00 18,5 C 68 % 1011,8 hPa 0,0 l/m 0,2 km/h N 12,5 C 18,5 C 2,8 km/h
22.04.2014 18:00 17,5 C 77 % 1012,2 hPa 4,9 l/m 0,2 km/h N 13,4 C 17,5 C 2,4 km/h
22.04.2014 19:00 16,7 C 82 % 1012,8 hPa 0,0 l/m 0,3 km/h N 13,5 C 16,7 C 1,6 km/h
22.04.2014 20:00 15,9 C 83 % 1013,6 hPa 0,0 l/m 0,0 km/h N 12,9 C 15,9 C 0,8 km/h
22.04.2014 21:00 14,3 C 83 % 1014,2 hPa 0,0 l/m 0,1 km/h N 11,5 C 14,3 C 0,8 km/h
22.04.2014 22:00 13,1 C 83 % 1014,7 hPa 0,0 l/m 0,0 km/h N 10,3 C 13,1 C 0,0 km/h
22.04.2014 23:00 12,1 C 83 % 1015,1 hPa 0,0 l/m 0,0 km/h N 9,3 C 12,1 C 0,0 km/h
23.04.2014 00:00 11,1 C 83 % 1015,4 hPa 0,0 l/m 0,0 km/h N 8,2 C 11,1 C 0,4 km/h
23.04.2014 01:00 10,9 C 81 % 1015,6 hPa 0,0 l/m 0,1 km/h N 7,8 C 10,9 C 1,2 km/h
23.04.2014 02:00 10,2 C 81 % 1015,5 hPa 0,0 l/m 0,1 km/h N 7,1 C 10,2 C 2,0 km/h
23.04.2014 03:00 9,8 C 81 % 1015,9 hPa 0,0 l/m 0,1 km/h N 6,7 C 9,8 C 1,6 km/h
23.04.2014 04:00 8,9 C 81 % 1016,4 hPa 0,0 l/m 0,2 km/h N 5,8 C 8,9 C 2,0 km/h
23.04.2014 05:00 8,2 C 81 % 1017,2 hPa 0,0 l/m 0,1 km/h N 5,1 C 8,2 C 0,8 km/h
23.04.2014 06:00 7,8 C 80 % 1017,6 hPa 0,0 l/m 0,0 km/h N 4,6 C 7,8 C 0,0 km/h
23.04.2014 07:00 8,9 C 77 % 1017,7 hPa 0,0 l/m 0,0 km/h N 5,1 C 8,9 C 0,0 km/h
23.04.2014 08:00 12,2 C 75 % 1017,7 hPa 0,0 l/m 0,8 km/h N 7,8 C 12,2 C 3,6 km/h
23.04.2014 09:00 15,7 C 76 % 1017,8 hPa 0,0 l/m 4,9 km/h N 11,4 C 15,7 C 15,3 km/h
23.04.2014 10:00 18,0 C 66 % 1018,0 hPa 0,0 l/m 4,4 km/h N 11,5 C 18,0 C 15,3 km/h
23.04.2014 11:00 19,0 C 62 % 1018,2 hPa 0,0 l/m 3,5 km/h N 11,4 C 19,0 C 13,3 km/h
23.04.2014 12:00 19,6 C 59 % 1017,8 hPa 0,0 l/m 3,4 km/h N 11,3 C 19,6 C 12,5 km/h
23.04.2014 13:00 20,7 C 54 % 1017,3 hPa 0,0 l/m 3,2 km/h N 11,1 C 20,7 C 13,7 km/h
23.04.2014 14:00 20,7 C 55 % 1016,7 hPa 0,0 l/m 2,4 km/h N 11,2 C 20,7 C 10,5 km/h
23.04.2014 15:00 20,8 C 53 % 1016,2 hPa 0,0 l/m 2,5 km/h N 10,7 C 20,8 C 12,9 km/h
23.04.2014 16:00 20,9 C 51 % 1015,9 hPa 0,0 l/m 2,7 km/h N 10,4 C 20,9 C 10,1 km/h
23.04.2014 17:00 21,0 C 52 % 1015,5 hPa 0,0 l/m 2,0 km/h N 10,6 C 21,0 C 10,1 km/h
23.04.2014 18:00 20,3 C 55 % 1015,4 hPa 0,0 l/m 2,2 km/h N 10,8 C 20,3 C 8,8 km/h
23.04.2014 19:00 19,4 C 56 % 1015,6 hPa 0,0 l/m 1,9 km/h N 10,4 C 19,4 C 7,2 km/h
23.04.2014 20:00 17,5 C 61 % 1016,1 hPa 0,0 l/m 0,1 km/h N 9,9 C 17,5 C 2,4 km/h
23.04.2014 21:00 15,5 C 69 % 1016,4 hPa 0,0 l/m 0,3 km/h N 9,7 C 15,5 C 2,4 km/h
23.04.2014 22:00 15,6 C 70 % 1016,3 hPa 0,0 l/m 1,5 km/h N 10,0 C 15,6 C 6,4 km/h
23.04.2014 23:00 15,3 C 71 % 1016,3 hPa 0,0 l/m 1,0 km/h N 10,0 C 15,3 C 5,2 km/h
24.04.2014 00:00 14,4 C 76 % 1016,2 hPa 0,0 l/m 1,0 km/h N 10,1 C 14,4 C 5,2 km/h
24.04.2014 01:00 14,3 C 78 % 1016,1 hPa 0,0 l/m 1,5 km/h N 10,5 C 14,3 C 7,2 km/h
24.04.2014 02:00 14,3 C 78 % 1015,8 hPa 0,0 l/m 3,7 km/h N 10,5 C 14,3 C 12,1 km/h
24.04.2014 03:00 13,9 C 79 % 1015,8 hPa 0,0 l/m 4,1 km/h N 10,2 C 13,9 C 13,3 km/h
24.04.2014 04:00 13,3 C 80 % 1015,9 hPa 0,0 l/m 3,6 km/h N 9,9 C 13,3 C 12,1 km/h
24.04.2014 05:00 13,2 C 80 % 1016,1 hPa 0,0 l/m 4,3 km/h N 9,8 C 13,2 C 12,5 km/h
24.04.2014 06:00 13,2 C 80 % 1016,1 hPa 0,0 l/m 4,8 km/h N 9,8 C 13,2 C 14,1 km/h
24.04.2014 07:00 13,5 C 79 % 1016,3 hPa 0,0 l/m 5,1 km/h N 9,9 C 13,5 C 14,5 km/h
24.04.2014 08:00 14,5 C 77 % 1016,3 hPa 0,0 l/m 7,6 km/h N 10,4 C 13,9 C 20,1 km/h
24.04.2014 09:00 15,4 C 75 % 1016,4 hPa 0,0 l/m 8,3 km/h N 10,9 C 14,4 C 22,9 km/h
24.04.2014 10:00 16,8 C 73 % 1016,2 hPa 0,0 l/m 7,8 km/h N 11,9 C 16,1 C 22,9 km/h
24.04.2014 11:00 17,6 C 70 % 1015,9 hPa 0,0 l/m 6,9 km/h N 12,1 C 17,3 C 18,5 km/h
24.04.2014 12:00 18,9 C 68 % 1015,5 hPa 0,0 l/m 7,5 km/h N 12,7 C 18,4 C 20,1 km/h
24.04.2014 13:00 20,1 C 64 % 1014,8 hPa 0,0 l/m 6,3 km/h N 12,9 C 20,0 C 19,3 km/h
24.04.2014 14:00 20,9 C 59 % 1014,2 hPa 0,0 l/m 5,6 km/h N 12,5 C 20,9 C 18,9 km/h
24.04.2014 15:00 21,3 C 54 % 1013,5 hPa 0,0 l/m 4,6 km/h N 11,7 C 21,3 C 14,9 km/h
24.04.2014 16:00 21,6 C 53 % 1012,8 hPa 0,0 l/m 5,1 km/h N 11,6 C 21,6 C 15,3 km/h
24.04.2014 17:00 21,0 C 58 % 1012,8 hPa 0,0 l/m 6,4 km/h N 12,5 C 20,8 C 17,3 km/h
24.04.2014 18:00 19,9 C 62 % 1012,7 hPa 0,0 l/m 6,9 km/h N 12,2 C 19,6 C 19,3 km/h
24.04.2014 19:00 18,9 C 63 % 1012,8 hPa 0,0 l/m 6,0 km/h N 11,8 C 18,9 C 20,5 km/h
24.04.2014 20:00 17,4 C 70 % 1014,0 hPa 8,8 l/m 4,2 km/h N 11,7 C 17,3 C 16,1 km/h
24.04.2014 21:00 14,3 C 82 % 1014,0 hPa 2,1 l/m 4,4 km/h N 11,3 C 14,2 C 12,5 km/h
24.04.2014 22:00 13,7 C 83 % 1014,0 hPa 0,0 l/m 0,6 km/h N 10,8 C 13,7 C 6,0 km/h
24.04.2014 23:00 13,6 C 82 % 1014,2 hPa 0,0 l/m 0,4 km/h N 10,6 C 13,6 C 3,6 km/h
25.04.2014 00:00 13,6 C 82 % 1013,8 hPa 0,3 l/m 0,6 km/h N 10,5 C 13,6 C 4,0 km/h
25.04.2014 01:00 13,5 C 82 % 1013,4 hPa 0,0 l/m 1,4 km/h N 10,4 C 13,5 C 6,8 km/h
25.04.2014 02:00 13,3 C 82 % 1013,3 hPa 0,0 l/m 0,4 km/h N 10,3 C 13,3 C 2,0 km/h
25.04.2014 03:00 13,0 C 82 % 1012,9 hPa 0,0 l/m 0,0 km/h N 10,0 C 13,0 C 1,2 km/h
25.04.2014 04:00 12,8 C 81 % 1012,7 hPa 0,0 l/m 0,1 km/h N 9,6 C 12,8 C 1,6 km/h
25.04.2014 05:00 12,7 C 81 % 1012,5 hPa 0,0 l/m 0,0 km/h N 9,4 C 12,7 C 0,8 km/h
25.04.2014 06:00 12,6 C 80 % 1012,8 hPa 0,3 l/m 0,1 km/h N 9,2 C 12,6 C 0,8 km/h
25.04.2014 07:00 12,9 C 79 % 1013,1 hPa 0,0 l/m 0,1 km/h N 9,4 C 12,9 C 0,8 km/h
25.04.2014 08:00 13,5 C 78 % 1013,3 hPa 0,5 l/m 0,0 km/h N 9,7 C 13,5 C 0,0 km/h
25.04.2014 09:00 14,2 C 78 % 1013,3 hPa 0,0 l/m 0,1 km/h N 10,3 C 14,2 C 1,6 km/h
25.04.2014 10:00 15,4 C 79 % 1013,2 hPa 0,0 l/m 0,9 km/h N 11,8 C 15,4 C 5,6 km/h
25.04.2014 11:00 17,4 C 80 % 1012,9 hPa 0,0 l/m 1,1 km/h N 13,9 C 17,4 C 7,6 km/h
25.04.2014 12:00 18,9 C 71 % 1012,5 hPa 0,0 l/m 2,5 km/h N 13,5 C 18,9 C 10,5 km/h
25.04.2014 13:00 19,1 C 68 % 1012,1 hPa 0,0 l/m 1,8 km/h N 13,1 C 19,1 C 8,4 km/h
25.04.2014 14:00 19,0 C 68 % 1011,7 hPa 0,0 l/m 1,7 km/h N 12,9 C 19,0 C 7,6 km/h
25.04.2014 15:00 19,0 C 69 % 1011,3 hPa 0,0 l/m 1,4 km/h N 13,0 C 19,0 C 7,6 km/h
25.04.2014 16:00 16,3 C 79 % 1011,4 hPa 0,0 l/m 3,5 km/h N 12,6 C 16,3 C 12,1 km/h
25.04.2014 17:00 16,7 C 79 % 1011,1 hPa 0,0 l/m 1,6 km/h N 13,1 C 16,7 C 7,6 km/h
25.04.2014 18:00 16,8 C 77 % 1010,9 hPa 0,0 l/m 1,0 km/h N 12,7 C 16,8 C 7,2 km/h
25.04.2014 19:00 16,3 C 78 % 1010,9 hPa 0,0 l/m 0,9 km/h N 12,5 C 16,3 C 6,0 km/h
25.04.2014 20:00 15,8 C 81 % 1011,3 hPa 0,0 l/m 0,2 km/h N 12,4 C 15,8 C 2,8 km/h
25.04.2014 21:00 15,3 C 83 % 1011,6 hPa 0,0 l/m 0,1 km/h N 12,4 C 15,3 C 3,2 km/h
25.04.2014 22:00 14,8 C 83 % 1011,5 hPa 0,0 l/m 0,0 km/h N 12,0 C 14,8 C 0,8 km/h
25.04.2014 23:00 14,4 C 83 % 1011,4 hPa 0,0 l/m 0,0 km/h N 11,6 C 14,4 C 0,0 km/h
26.04.2014 00:00 14,3 C 83 % 1011,4 hPa 0,0 l/m 0,0 km/h N 11,4 C 14,3 C 0,0 km/h
26.04.2014 01:00 14,1 C 83 % 1011,1 hPa 0,0 l/m 0,0 km/h N 11,3 C 14,1 C 0,0 km/h
26.04.2014 02:00 14,1 C 83 % 1010,9 hPa 0,0 l/m 0,0 km/h N 11,3 C 14,1 C 0,0 km/h
26.04.2014 03:00 14,1 C 82 % 1010,8 hPa 0,0 l/m 0,0 km/h N 11,1 C 14,1 C 0,0 km/h
26.04.2014 04:00 14,1 C 81 % 1010,6 hPa 0,0 l/m 0,3 km/h N 11,0 C 14,1 C 3,6 km/h
26.04.2014 05:00 13,9 C 80 % 1010,7 hPa 0,0 l/m 0,7 km/h N 10,5 C 13,9 C 5,2 km/h
26.04.2014 06:00 13,8 C 79 % 1011,2 hPa 1,6 l/m 0,1 km/h N 10,2 C 13,8 C 1,6 km/h
26.04.2014 07:00 13,7 C 79 % 1011,6 hPa 0,0 l/m 0,1 km/h N 10,1 C 13,7 C 2,8 km/h
26.04.2014 08:00 13,7 C 78 % 1011,8 hPa 0,0 l/m 0,3 km/h N 9,9 C 13,7 C 3,2 km/h
26.04.2014 09:00 13,9 C 77 % 1012,0 hPa 0,5 l/m 1,6 km/h N 9,9 C 13,9 C 7,6 km/h
26.04.2014 10:00 14,0 C 76 % 1012,3 hPa 1,6 l/m 1,8 km/h N 9,8 C 14,0 C 8,0 km/h
26.04.2014 11:00 14,1 C 76 % 1012,4 hPa 1,0 l/m 1,6 km/h N 9,9 C 14,1 C 6,8 km/h
26.04.2014 12:00 14,5 C 76 % 1012,3 hPa 2,1 l/m 0,9 km/h N 10,2 C 14,5 C 4,8 km/h
26.04.2014 13:00 14,9 C 77 % 1012,1 hPa 0,0 l/m 2,5 km/h N 10,9 C 14,9 C 8,1 km/h
26.04.2014 14:00 15,7 C 82 % 1011,6 hPa 0,0 l/m 3,6 km/h N 12,7 C 15,7 C 9,7 km/h
26.04.2014 15:00 16,8 C 81 % 1010,7 hPa 0,3 l/m 2,2 km/h N 13,5 C 16,8 C 8,4 km/h
26.04.2014 16:00 17,5 C 78 % 1010,2 hPa 0,0 l/m 2,9 km/h N 13,5 C 17,5 C 8,4 km/h
26.04.2014 17:00 17,5 C 75 % 1009,8 hPa 0,0 l/m 3,5 km/h N 13,1 C 17,5 C 9,3 km/h
26.04.2014 18:00 17,0 C 77 % 1009,6 hPa 0,0 l/m 6,3 km/h N 12,9 C 16,8 C 16,5 km/h
26.04.2014 19:00 16,3 C 80 % 1009,6 hPa 0,0 l/m 2,5 km/h N 12,9 C 16,3 C 8,8 km/h
26.04.2014 20:00 15,7 C 83 % 1009,7 hPa 0,0 l/m 1,4 km/h N 12,7 C 15,7 C 5,6 km/h
26.04.2014 21:00 15,0 C 83 % 1009,7 hPa 0,0 l/m 0,3 km/h N 12,2 C 15,0 C 3,2 km/h
26.04.2014 22:00 14,4 C 84 % 1009,5 hPa 0,0 l/m 0,3 km/h N 11,7 C 14,4 C 2,8 km/h
26.04.2014 23:00 13,5 C 83 % 1009,2 hPa 0,0 l/m 0,6 km/h N 10,7 C 13,5 C 4,0 km/h
27.04.2014 00:00 12,9 C 83 % 1008,7 hPa 0,0 l/m 0,1 km/h N 10,0 C 12,9 C 0,8 km/h
27.04.2014 01:00 11,4 C 83 % 1008,2 hPa 0,0 l/m 0,0 km/h N 8,6 C 11,4 C 0,0 km/h
27.04.2014 02:00 10,5 C 82 % 1007,6 hPa 0,0 l/m 0,2 km/h N 7,6 C 10,5 C 1,6 km/h
27.04.2014 03:00 9,8 C 82 % 1007,2 hPa 0,0 l/m 0,0 km/h N 6,8 C 9,8 C 0,4 km/h
27.04.2014 04:00 9,0 C 82 % 1007,0 hPa 0,0 l/m 0,0 km/h N 6,1 C 9,0 C 0,0 km/h
27.04.2014 05:00 9,0 C 81 % 1006,9 hPa 0,0 l/m 0,0 km/h N 5,9 C 9,0 C 0,0 km/h
27.04.2014 06:00 9,7 C 79 % 1006,9 hPa 0,0 l/m 0,3 km/h N 6,3 C 9,7 C 1,2 km/h
27.04.2014 07:00 11,3 C 77 % 1006,9 hPa 0,0 l/m 1,8 km/h N 7,4 C 11,3 C 6,4 km/h
27.04.2014 08:00 12,9 C 79 % 1006,8 hPa 0,0 l/m 3,2 km/h N 9,4 C 12,9 C 10,4 km/h
27.04.2014 09:00 15,3 C 71 % 1006,5 hPa 0,0 l/m 7,4 km/h N 10,0 C 14,5 C 19,3 km/h
27.04.2014 10:00 17,0 C 65 % 1006,2 hPa 0,0 l/m 6,6 km/h N 10,4 C 16,8 C 18,5 km/h
27.04.2014 11:00 18,5 C 59 % 1006,1 hPa 0,0 l/m 6,6 km/h N 10,3 C 18,3 C 20,9 km/h
27.04.2014 12:00 19,3 C 55 % 1005,8 hPa 0,0 l/m 7,7 km/h N 10,1 C 18,7 C 24,1 km/h
27.04.2014 13:00 20,4 C 51 % 1005,6 hPa 0,0 l/m 7,6 km/h N 9,9 C 19,8 C 21,3 km/h
27.04.2014 14:00 21,0 C 51 % 1005,0 hPa 0,0 l/m 7,2 km/h N 10,4 C 20,6 C 19,3 km/h
27.04.2014 15:00 20,7 C 53 % 1004,3 hPa 0,0 l/m 6,3 km/h N 10,6 C 20,7 C 18,9 km/h
27.04.2014 16:00 20,4 C 53 % 1003,9 hPa 0,0 l/m 7,1 km/h N 10,5 C 20,0 C 20,5 km/h
27.04.2014 17:00 20,3 C 55 % 1003,7 hPa 0,0 l/m 6,9 km/h N 11,0 C 20,0 C 22,1 km/h
27.04.2014 18:00 19,8 C 57 % 1003,7 hPa 0,0 l/m 6,0 km/h N 11,0 C 19,6 C 17,3 km/h
27.04.2014 19:00 18,6 C 63 % 1004,3 hPa 0,0 l/m 1,4 km/h N 11,3 C 18,6 C 9,3 km/h
27.04.2014 20:00 17,1 C 70 % 1004,9 hPa 0,0 l/m 0,0 km/h N 11,5 C 17,1 C 0,0 km/h
27.04.2014 21:00 15,4 C 78 % 1005,4 hPa 0,0 l/m 0,8 km/h N 11,5 C 15,4 C 4,0 km/h
27.04.2014 22:00 14,7 C 78 % 1005,8 hPa 0,0 l/m 1,3 km/h N 10,8 C 14,7 C 5,6 km/h
27.04.2014 23:00 13,8 C 79 % 1006,3 hPa 0,0 l/m 2,9 km/h N 10,2 C 13,8 C 10,9 km/h
Min-Datum _ 23.04.14 23.04.14 27.04.14 - 21.04.14 - 23.04.14 23.04.14 21.04.14
_ Min-Zeit 06:30 17:00 17:30 - 00:00 - 06:30 06:30 00:00
Minimum _ 7,7 C 49 % 1003,6 hPa - 0,0 km/h - 4,5 C 7,7 C 0,0 km/h
Max-Datum _ 24.04.14 21.04.14 23.04.14 24.04.14 21.04.14 - 25.04.14 24.04.14 21.04.14
_ Max-Zeit 16:15 00:00 10:30 20:30 12:45 - 11:30 16:00 13:00
Maximum _ 21,8 C 84 % 1018,2 hPa 8,8 l/m 14,2 km/h
N
- 14,2 C 21,7 C 35,4 km/h
N
Durchschnitt _ 14,9 C 74 % 1011,2 hPa #24,7 l/m 2,5 km/h N 10,3 C 14,8 C 8,5 km/h